createdAt,value
2022-11-15T00:01:18.748Z,54.60
2022-11-15T00:03:47.409Z,43.50
2022-11-15T00:06:15.572Z,155.47
2022-11-15T00:08:43.567Z,193.57
2022-11-15T00:11:13.885Z,132.03
2022-11-15T00:13:43.336Z,400.77
2022-11-15T00:16:12.528Z,380.70
2022-11-15T00:18:40.656Z,296.10
2022-11-15T00:21:10.046Z,108.03
2022-11-15T00:23:38.286Z,262.37
2022-11-15T00:26:06.721Z,329.50
2022-11-15T00:28:34.727Z,243.07
2022-11-15T00:31:04.838Z,253.30
2022-11-15T00:33:33.414Z,54.83
2022-11-15T00:36:03.312Z,84.30
2022-11-15T00:38:34.071Z,241.70
2022-11-15T00:41:07.923Z,178.50
2022-11-15T00:43:37.744Z,261.40
2022-11-15T00:46:09.158Z,158.70
2022-11-15T00:48:37.183Z,220.77
2022-11-15T00:51:05.334Z,275.47
2022-11-15T00:53:33.639Z,468.50
2022-11-15T00:56:01.875Z,154.93
2022-11-15T00:58:29.909Z,169.10
2022-11-15T01:00:58.221Z,266.90
2022-11-15T01:03:27.735Z,259.50
2022-11-15T01:05:55.901Z,192.70
2022-11-15T01:08:23.896Z,351.80
2022-11-15T01:10:51.902Z,245.67
2022-11-15T01:13:19.925Z,207.90
2022-11-15T01:15:47.979Z,331.97
2022-11-15T01:18:15.984Z,261.83
2022-11-15T01:20:45.629Z,205.57
2022-11-15T01:23:13.640Z,210.13
2022-11-15T01:25:41.675Z,268.37
2022-11-15T01:28:09.742Z,183.20
2022-11-15T01:30:38.529Z,111.07
2022-11-15T01:33:06.573Z,75.37
2022-11-15T01:35:34.662Z,220.20
2022-11-15T01:38:04.069Z,48.67
2022-11-15T01:40:32.127Z,255.50
2022-11-15T01:43:00.146Z,162.43
2022-11-15T01:45:28.735Z,89.97
2022-11-15T01:47:57.547Z,135.13
2022-11-15T01:50:29.129Z,80.47
2022-11-15T01:52:57.518Z,95.30
2022-11-15T01:55:29.561Z,82.63
2022-11-15T01:58:01.867Z,76.97
2022-11-15T02:00:31.203Z,28.43
2022-11-15T02:02:59.555Z,24.47
2022-11-15T02:05:28.285Z,87.97
2022-11-15T02:07:56.844Z,88.73
2022-11-15T02:10:27.438Z,293.67
2022-11-15T02:12:56.966Z,36.33
2022-11-15T02:15:29.926Z,309.40
2022-11-15T02:18:12.628Z,144.70
2022-11-15T02:20:57.487Z,54.97
2022-11-15T02:23:58.255Z,90.07
2022-11-15T02:26:58.087Z,23.37
2022-11-15T02:29:38.863Z,261.10
2022-11-15T02:32:15.870Z,199.10
2022-11-15T02:34:56.998Z,152.30
2022-11-15T02:37:33.034Z,236.80
2022-11-15T02:40:09.828Z,283.33
2022-11-15T02:43:00.385Z,157.30
2022-11-15T02:45:33.568Z,317.07
2022-11-15T02:48:04.294Z,58.63
2022-11-15T02:50:34.813Z,245.17
2022-11-15T02:53:02.988Z,160.80
2022-11-15T02:55:33.054Z,75.33
2022-11-15T02:58:18.034Z,225.87
2022-11-15T03:00:53.176Z,254.20
2022-11-15T03:03:43.766Z,169.87
2022-11-15T03:06:22.235Z,76.57
2022-11-15T03:08:57.836Z,158.43
2022-11-15T03:11:26.436Z,264.57
2022-11-15T03:13:59.715Z,175.00
2022-11-15T03:16:33.849Z,101.93
2022-11-15T03:19:07.771Z,169.57
2022-11-15T03:21:39.291Z,297.60
2022-11-15T03:24:09.726Z,238.40
2022-11-15T03:26:41.437Z,110.90
2022-11-15T03:29:15.112Z,129.03
2022-11-15T03:31:51.376Z,161.93
2022-11-15T03:34:28.516Z,344.13
2022-11-15T03:36:56.605Z,162.70
2022-11-15T03:39:26.953Z,229.63
2022-11-15T03:42:03.689Z,173.33
2022-11-15T03:44:41.047Z,155.07
2022-11-15T03:47:13.651Z,80.93
2022-11-15T03:49:46.790Z,178.37
2022-11-15T03:52:15.149Z,166.47
2022-11-15T03:54:51.540Z,145.13
2022-11-15T03:57:19.642Z,179.40
2022-11-15T03:59:47.769Z,119.17
2022-11-15T04:02:16.316Z,114.17
2022-11-15T04:04:45.806Z,53.43
2022-11-15T04:07:13.999Z,235.50
2022-11-15T04:09:56.133Z,82.80
2022-11-15T04:12:31.851Z,326.03
2022-11-15T04:15:10.382Z,188.90
2022-11-15T04:17:40.428Z,73.97
2022-11-15T04:20:29.889Z,53.40
2022-11-15T04:23:16.458Z,89.40
2022-11-15T04:25:45.654Z,313.47
2022-11-15T04:28:14.106Z,81.63
2022-11-15T04:30:42.182Z,254.87
2022-11-15T04:33:10.321Z,228.37
2022-11-15T04:35:39.925Z,320.80
2022-11-15T04:38:09.451Z,160.50
2022-11-15T04:40:38.088Z,95.93
2022-11-15T04:43:06.699Z,176.53
2022-11-15T04:45:34.726Z,241.80
2022-11-15T04:48:02.785Z,411.27
2022-11-15T04:50:30.802Z,387.60
2022-11-15T04:53:00.194Z,320.17
2022-11-15T04:55:28.211Z,235.83
2022-11-15T04:58:03.252Z,181.37
2022-11-15T05:00:31.823Z,316.97
2022-11-15T05:03:17.613Z,208.50
2022-11-15T05:05:45.628Z,321.37
2022-11-15T05:08:15.043Z,365.87
2022-11-15T05:10:43.052Z,498.60
2022-11-15T05:13:11.118Z,212.60
2022-11-15T05:15:39.138Z,316.43
2022-11-15T05:18:07.215Z,199.13
2022-11-15T05:20:35.212Z,325.47
2022-11-15T05:23:03.277Z,284.27
2022-11-15T05:25:32.715Z,229.83
2022-11-15T05:28:00.735Z,259.57
2022-11-15T05:30:28.762Z,305.07
2022-11-15T05:32:56.839Z,365.97
2022-11-15T05:35:31.555Z,448.03
2022-11-15T05:37:59.884Z,405.10
2022-11-15T05:40:28.541Z,230.60
2022-11-15T05:42:58.795Z,313.03
2022-11-15T05:45:27.286Z,315.10
2022-11-15T05:47:57.634Z,270.67
2022-11-15T05:50:25.807Z,276.17
2022-11-15T05:52:54.187Z,252.43
2022-11-15T05:55:22.529Z,241.53
2022-11-15T05:57:50.676Z,213.77
2022-11-15T06:00:20.827Z,240.87
2022-11-15T06:02:48.825Z,166.10
2022-11-15T06:05:17.029Z,171.97
2022-11-15T06:07:45.247Z,83.50
2022-11-15T06:10:13.699Z,52.40
2022-11-15T06:12:41.731Z,186.30
2022-11-15T06:15:10.806Z,58.83
2022-11-15T06:17:40.207Z,122.77
2022-11-15T06:20:09.052Z,140.87
2022-11-15T06:22:37.062Z,205.53
2022-11-15T06:25:05.968Z,103.17
2022-11-15T06:27:34.115Z,38.20
2022-11-15T06:30:02.244Z,63.37
2022-11-15T06:32:31.571Z,142.67
2022-11-15T06:35:00.978Z,83.53
2022-11-15T06:37:28.980Z,39.03
2022-11-15T06:39:57.011Z,88.37
2022-11-15T06:42:25.050Z,53.17
2022-11-15T06:44:53.060Z,146.23
2022-11-15T06:47:21.082Z,99.83
2022-11-15T06:49:49.132Z,44.17
2022-11-15T06:52:19.468Z,179.73
2022-11-15T06:54:47.660Z,29.50
2022-11-15T06:57:15.707Z,113.93
2022-11-15T06:59:44.006Z,135.03
2022-11-15T07:02:15.529Z,27.57
2022-11-15T07:04:43.629Z,84.50
2022-11-15T07:07:12.138Z,21.60
2022-11-15T07:09:41.549Z,60.60
2022-11-15T07:12:09.594Z,82.17
2022-11-15T07:14:37.624Z,74.27
2022-11-15T07:17:06.780Z,111.67
2022-11-15T07:19:34.819Z,13.97
2022-11-15T07:22:02.883Z,155.50
2022-11-15T07:24:31.115Z,37.20
2022-11-15T07:27:00.600Z,99.10
2022-11-15T07:29:29.023Z,265.13
2022-11-15T07:31:57.367Z,17.83
2022-11-15T07:34:25.811Z,41.43
2022-11-15T07:36:53.904Z,263.40
2022-11-15T07:39:21.906Z,38.33
2022-11-15T07:41:50.534Z,147.67
2022-11-15T07:44:19.895Z,71.07
2022-11-15T07:46:47.994Z,90.43
2022-11-15T07:49:15.983Z,370.37
2022-11-15T07:51:44.022Z,252.90
2022-11-15T07:54:12.006Z,128.27
2022-11-15T07:56:40.155Z,67.83
2022-11-15T07:59:08.153Z,286.93
2022-11-15T08:01:37.604Z,254.40
2022-11-15T08:04:05.867Z,219.90
2022-11-15T08:06:33.912Z,122.03
2022-11-15T08:09:02.159Z,68.07
2022-11-15T08:11:30.273Z,142.00
2022-11-15T08:13:58.467Z,262.60
2022-11-15T08:16:26.493Z,265.77
2022-11-15T08:18:55.861Z,227.47
2022-11-15T08:21:25.149Z,102.03
2022-11-15T08:23:53.169Z,205.27
2022-11-15T08:26:21.324Z,369.47
2022-11-15T08:28:49.301Z,59.30
2022-11-15T08:31:19.615Z,673.73
2022-11-15T08:33:47.909Z,329.87
2022-11-15T08:36:19.077Z,568.13
2022-11-15T08:38:47.150Z,220.07
2022-11-15T08:41:18.875Z,370.47
2022-11-15T08:43:46.938Z,180.07
2022-11-15T08:46:15.872Z,234.33
2022-11-15T08:48:43.878Z,376.83
2022-11-15T08:51:11.934Z,291.00
2022-11-15T08:53:41.454Z,257.57
2022-11-15T08:56:10.128Z,295.73
2022-11-15T08:58:38.731Z,313.00
2022-11-15T09:01:07.467Z,289.40
2022-11-15T09:03:35.672Z,228.83
2022-11-15T09:06:03.845Z,568.07
2022-11-15T09:08:47.053Z,457.37
2022-11-15T09:11:21.095Z,286.97
2022-11-15T09:13:49.120Z,383.43
2022-11-15T09:16:17.296Z,469.33
2022-11-15T09:18:45.542Z,492.37
2022-11-15T09:21:13.678Z,195.33
2022-11-15T09:23:41.847Z,501.17
2022-11-15T09:26:10.372Z,326.10
2022-11-15T09:28:42.745Z,683.20
2022-11-15T09:31:10.897Z,532.63
2022-11-15T09:33:39.205Z,547.20
2022-11-15T09:36:09.511Z,521.43
2022-11-15T09:38:37.892Z,571.33
2022-11-15T09:41:41.040Z,423.07
2022-11-15T09:44:30.009Z,544.90
2022-11-15T09:47:05.201Z,409.47
2022-11-15T09:49:33.941Z,528.73
2022-11-15T09:52:02.712Z,555.63
2022-11-15T09:57:25.274Z,451.77
2022-11-15T10:00:23.942Z,465.57
2022-11-15T10:03:11.492Z,345.07
2022-11-15T10:05:42.878Z,293.60
2022-11-15T10:08:33.991Z,230.47
2022-11-15T10:11:35.549Z,492.43
2022-11-15T10:13:57.400Z,403.43
2022-11-15T10:17:01.922Z,392.00
2022-11-15T10:19:36.335Z,618.43
2022-11-15T10:22:20.999Z,571.13
2022-11-15T10:24:49.597Z,506.37
2022-11-15T10:27:19.706Z,403.97
2022-11-15T10:29:50.361Z,603.57
2022-11-15T10:32:22.228Z,646.43
2022-11-15T10:34:51.629Z,640.00
2022-11-15T10:37:30.472Z,576.40
2022-11-15T10:40:09.328Z,891.00
2022-11-15T10:42:37.443Z,582.53
2022-11-15T10:45:26.436Z,780.73
2022-11-15T10:47:56.102Z,759.93
2022-11-15T10:50:31.042Z,536.90
2022-11-15T10:52:59.574Z,497.63
2022-11-15T10:55:30.553Z,563.93
2022-11-15T10:58:04.561Z,417.63
2022-11-15T11:00:36.167Z,666.33
2022-11-15T11:03:09.014Z,580.80
2022-11-15T11:05:42.386Z,560.93
2022-11-15T11:08:25.185Z,504.90
2022-11-15T11:11:02.816Z,405.60
2022-11-15T11:13:34.753Z,461.40
2022-11-15T11:16:19.453Z,657.97
2022-11-15T11:18:57.779Z,454.77
2022-11-15T11:21:40.015Z,578.00
2022-11-15T11:24:15.869Z,508.20
2022-11-15T11:26:56.687Z,445.10
2022-11-15T11:29:39.215Z,536.13
2022-11-15T11:32:24.787Z,549.37
2022-11-15T11:35:04.182Z,559.43
2022-11-15T11:37:39.133Z,695.20
2022-11-15T11:40:21.633Z,531.30
2022-11-15T11:43:00.219Z,610.43
2022-11-15T11:45:47.422Z,710.90
2022-11-15T11:48:17.081Z,561.93
2022-11-15T11:50:47.747Z,797.40
2022-11-15T11:53:25.740Z,397.10
2022-11-15T11:55:56.473Z,530.97
2022-11-15T11:58:33.234Z,753.23
2022-11-15T12:01:13.045Z,520.63
2022-11-15T12:03:45.299Z,526.10
2022-11-15T12:06:25.593Z,674.17
2022-11-15T12:09:00.202Z,837.83
2022-11-15T12:11:32.763Z,596.03
2022-11-15T12:14:03.555Z,637.97
2022-11-15T12:16:33.666Z,666.57
2022-11-15T12:19:03.432Z,674.33
2022-11-15T12:21:41.476Z,713.30
2022-11-15T12:24:16.154Z,486.27
2022-11-15T12:26:50.783Z,580.00
2022-11-15T12:29:23.975Z,507.53
2022-11-15T12:31:56.616Z,587.47
2022-11-15T12:34:47.076Z,754.03
2022-11-15T12:37:51.867Z,576.27
2022-11-15T12:40:27.093Z,501.63
2022-11-15T12:43:07.126Z,563.50
2022-11-15T12:45:37.749Z,664.17
2022-11-15T12:48:57.691Z,712.17
2022-11-15T12:52:04.460Z,713.53
2022-11-15T12:55:00.632Z,645.67
2022-11-15T12:57:43.505Z,513.77
2022-11-15T13:00:39.524Z,630.57
2022-11-15T13:03:28.658Z,645.17
2022-11-15T13:06:10.560Z,482.40
2022-11-15T13:08:57.532Z,677.07
2022-11-15T13:11:49.144Z,556.30
2022-11-15T13:14:47.790Z,547.33
2022-11-15T13:17:41.220Z,416.07
2022-11-15T13:20:22.724Z,560.37
2022-11-15T13:22:57.519Z,484.60
2022-11-15T13:25:53.015Z,777.37
2022-11-15T13:28:26.680Z,620.77
2022-11-15T13:30:58.105Z,473.37
2022-11-15T13:33:31.672Z,664.10
2022-11-15T13:36:06.334Z,542.30
2022-11-15T13:38:36.041Z,583.17
2022-11-15T13:41:19.758Z,459.43
2022-11-15T13:43:48.363Z,412.00
2022-11-15T13:46:19.841Z,615.47
2022-11-15T13:48:49.129Z,487.40
2022-11-15T13:51:22.879Z,574.40
2022-11-15T13:53:54.116Z,590.43
2022-11-15T13:56:22.987Z,520.27
2022-11-15T13:58:51.304Z,390.20
2022-11-15T14:01:22.488Z,283.90
2022-11-15T14:03:54.781Z,587.93
2022-11-15T14:06:25.392Z,634.57
2022-11-15T14:09:03.551Z,483.77
2022-11-15T14:11:31.732Z,472.60
2022-11-15T14:14:14.342Z,445.07
2022-11-15T14:16:45.629Z,466.57
2022-11-15T14:19:34.723Z,355.70
2022-11-15T14:22:18.975Z,638.93
2022-11-15T14:24:48.889Z,424.77
2022-11-15T14:27:25.626Z,446.93
2022-11-15T14:29:54.244Z,490.60
2022-11-15T14:32:26.007Z,482.73
2022-11-15T14:34:58.030Z,406.53
2022-11-15T14:37:28.206Z,460.20
2022-11-15T14:39:57.060Z,382.13
2022-11-15T14:42:25.803Z,359.33
2022-11-15T14:44:53.970Z,263.43
2022-11-15T14:47:23.425Z,354.53
2022-11-15T14:49:51.527Z,295.93
2022-11-15T14:52:32.239Z,394.03
2022-11-15T14:55:02.462Z,311.97
2022-11-15T14:57:31.065Z,384.43
2022-11-15T14:59:59.238Z,378.80
2022-11-15T15:02:29.625Z,454.40
2022-11-15T15:05:02.011Z,610.13
2022-11-15T15:07:30.262Z,638.60
2022-11-15T15:10:24.635Z,328.43
2022-11-15T15:12:46.571Z,381.80
2022-11-15T15:15:17.269Z,272.13
2022-11-15T15:17:46.776Z,351.23
2022-11-15T15:20:14.958Z,290.20
2022-11-15T15:22:43.022Z,314.10
2022-11-15T15:25:23.385Z,359.03
2022-11-15T15:27:51.707Z,378.80
2022-11-15T15:30:19.921Z,382.30
2022-11-15T15:32:49.427Z,378.27
2022-11-15T15:35:18.638Z,257.30
2022-11-15T15:37:48.090Z,200.00
2022-11-15T15:40:18.858Z,501.67
2022-11-15T15:42:46.902Z,293.73
2022-11-15T15:45:15.906Z,243.63
2022-11-15T15:47:44.497Z,438.60
2022-11-15T15:50:23.497Z,376.03
2022-11-15T15:52:51.881Z,338.77
2022-11-15T15:55:20.169Z,354.57
2022-11-15T15:57:48.451Z,433.80
2022-11-15T16:00:17.141Z,337.43
2022-11-15T16:02:45.471Z,364.83
2022-11-15T16:05:14.727Z,294.00
2022-11-15T16:07:45.161Z,478.83
2022-11-15T16:10:21.505Z,235.80
2022-11-15T16:12:50.338Z,410.97
2022-11-15T16:15:18.690Z,296.77
2022-11-15T16:17:50.117Z,287.13
2022-11-15T16:20:36.638Z,349.47
2022-11-15T16:23:09.617Z,149.30
2022-11-15T16:25:43.353Z,243.40
2022-11-15T16:28:20.871Z,204.83
2022-11-15T16:30:53.910Z,187.07
2022-11-15T16:33:25.297Z,245.63
2022-11-15T16:35:53.439Z,151.87
2022-11-15T16:38:22.949Z,281.30
2022-11-15T16:40:50.971Z,129.17
2022-11-15T16:43:19.140Z,187.83
2022-11-15T16:45:47.433Z,241.07
2022-11-15T16:48:25.271Z,332.20
2022-11-15T16:50:57.569Z,118.30
2022-11-15T16:53:27.976Z,261.50
2022-11-15T16:55:56.806Z,478.37
2022-11-15T16:58:25.440Z,357.83
2022-11-15T17:00:54.318Z,203.87
2022-11-15T17:03:22.697Z,818.27
2022-11-15T17:05:50.947Z,200.83
2022-11-15T17:08:20.880Z,297.33
2022-11-15T17:10:50.423Z,566.40
2022-11-15T17:13:18.510Z,648.63
2022-11-15T17:15:46.520Z,665.43
2022-11-15T17:18:15.669Z,241.47
2022-11-15T17:20:44.869Z,462.93
2022-11-15T17:23:15.433Z,522.17
2022-11-15T17:25:43.805Z,431.83
2022-11-15T17:28:13.214Z,387.93
2022-11-15T17:30:43.223Z,282.50
2022-11-15T17:33:11.302Z,626.00
2022-11-15T17:35:39.338Z,564.80
2022-11-15T17:38:07.389Z,372.57
2022-11-15T17:40:35.415Z,400.30
2022-11-15T17:43:03.675Z,371.90
2022-11-15T17:45:33.025Z,352.17
2022-11-15T17:48:01.050Z,466.23
2022-11-15T17:50:29.034Z,362.73
2022-11-15T17:52:57.358Z,509.10
2022-11-15T17:55:25.370Z,458.20
2022-11-15T17:57:53.391Z,281.37
2022-11-15T18:00:21.816Z,674.67
2022-11-15T18:02:51.209Z,220.00
2022-11-15T18:05:19.253Z,291.87
2022-11-15T18:07:47.252Z,173.30
2022-11-15T18:10:15.339Z,268.63
2022-11-15T18:12:43.343Z,222.43
2022-11-15T18:15:11.518Z,194.87
2022-11-15T18:17:39.561Z,421.77
2022-11-15T18:20:10.142Z,452.30
2022-11-15T18:22:38.155Z,141.13
2022-11-15T18:25:06.950Z,240.27
2022-11-15T18:27:35.134Z,136.13
2022-11-15T18:30:03.174Z,151.07
2022-11-15T18:32:31.165Z,445.00
2022-11-15T18:34:59.219Z,169.33
2022-11-15T18:37:28.612Z,226.50
2022-11-15T18:39:56.715Z,277.37
2022-11-15T18:42:24.761Z,255.33
2022-11-15T18:44:52.966Z,255.53
2022-11-15T18:47:20.983Z,142.93
2022-11-15T18:49:49.024Z,302.73
2022-11-15T18:52:17.053Z,215.30
2022-11-15T18:54:46.438Z,376.20
2022-11-15T18:57:14.445Z,210.10
2022-11-15T18:59:42.467Z,164.87
2022-11-15T19:02:13.213Z,230.50
2022-11-15T19:04:41.310Z,287.33
2022-11-15T19:07:09.362Z,280.87
2022-11-15T19:09:38.739Z,239.80
2022-11-15T19:12:08.510Z,249.70
2022-11-15T19:14:36.524Z,234.70
2022-11-15T19:17:04.640Z,184.97
2022-11-15T19:19:32.990Z,159.37
2022-11-15T19:22:02.343Z,150.30
2022-11-15T19:24:30.528Z,138.93
2022-11-15T19:26:58.542Z,278.63
2022-11-15T19:29:27.914Z,174.90
2022-11-15T19:31:55.929Z,95.27
2022-11-15T19:34:23.912Z,257.63
2022-11-15T19:36:51.952Z,132.53
2022-11-15T19:39:19.967Z,316.30
2022-11-15T19:41:48.286Z,272.53
2022-11-15T19:44:16.563Z,167.80
2022-11-15T19:46:45.961Z,220.07
2022-11-15T19:49:14.268Z,124.70
2022-11-15T19:51:45.124Z,183.00
2022-11-15T19:54:13.651Z,109.80
2022-11-15T19:56:41.703Z,182.20
2022-11-15T19:59:11.597Z,83.87
2022-11-15T20:01:39.967Z,396.93
2022-11-15T20:04:10.204Z,103.83
2022-11-15T20:06:40.400Z,150.37
2022-11-15T20:09:09.001Z,183.10
2022-11-15T20:11:38.161Z,112.17
2022-11-15T20:14:08.932Z,235.60
2022-11-15T20:16:37.500Z,25.87
2022-11-15T20:19:05.981Z,356.40
2022-11-15T20:21:35.740Z,72.83
2022-11-15T20:24:03.746Z,174.43
2022-11-15T20:26:32.314Z,151.17
2022-11-15T20:29:03.181Z,222.83
2022-11-15T20:31:31.939Z,390.80
2022-11-15T20:33:59.957Z,231.10
2022-11-15T20:36:28.311Z,204.70
2022-11-15T20:39:00.224Z,132.77
2022-11-15T20:41:28.994Z,356.13
2022-11-15T20:43:57.053Z,250.67
2022-11-15T20:46:25.317Z,263.17
2022-11-15T20:48:53.429Z,277.20
2022-11-15T20:51:21.766Z,276.83
2022-11-15T20:53:50.410Z,269.03
2022-11-15T20:56:21.841Z,81.83
2022-11-15T20:58:51.223Z,84.23
2022-11-15T21:01:24.376Z,339.17
2022-11-15T21:03:53.246Z,186.07
2022-11-15T21:06:21.783Z,283.33
2022-11-15T21:09:07.884Z,420.83
2022-11-15T21:11:54.960Z,196.03
2022-11-15T21:14:22.982Z,402.43
2022-11-15T21:16:51.151Z,299.40
2022-11-15T21:19:23.873Z,247.90
2022-11-15T21:21:55.286Z,209.20
2022-11-15T21:24:24.638Z,151.53
2022-11-15T21:26:54.928Z,286.00
2022-11-15T21:29:22.964Z,113.50
2022-11-15T21:31:52.889Z,317.07
2022-11-15T21:34:21.612Z,314.73
2022-11-15T21:36:49.710Z,444.13
2022-11-15T21:39:17.730Z,519.13
2022-11-15T21:41:45.852Z,525.30
2022-11-15T21:44:15.212Z,354.67
2022-11-15T21:46:43.605Z,377.10
2022-11-15T21:49:11.875Z,431.63
2022-11-15T21:51:39.977Z,251.67
2022-11-15T21:54:08.303Z,271.57
2022-11-15T21:56:36.846Z,754.90
2022-11-15T21:59:04.914Z,95.53
2022-11-15T22:01:51.882Z,667.27
2022-11-15T22:04:21.470Z,314.73
2022-11-15T22:06:49.495Z,301.17
2022-11-15T22:09:17.582Z,355.63
2022-11-15T22:11:45.634Z,174.77
2022-11-15T22:14:13.731Z,357.70
2022-11-15T22:16:43.067Z,349.73
2022-11-15T22:19:11.157Z,296.53
2022-11-15T22:21:40.069Z,278.07
2022-11-15T22:24:08.682Z,297.13
2022-11-15T22:26:36.857Z,386.23
2022-11-15T22:29:04.972Z,180.97
2022-11-15T22:31:33.033Z,348.03
2022-11-15T22:34:02.474Z,233.93
2022-11-15T22:36:46.829Z,376.47
2022-11-15T22:39:18.855Z,213.90
2022-11-15T22:41:46.924Z,426.23
2022-11-15T22:44:15.006Z,359.63
2022-11-15T22:46:43.043Z,185.17
2022-11-15T22:49:12.586Z,251.70
2022-11-15T22:51:40.723Z,329.13
2022-11-15T22:54:08.973Z,480.97
2022-11-15T22:56:37.035Z,308.53
2022-11-15T22:59:05.112Z,644.70
2022-11-15T23:01:33.171Z,459.47
2022-11-15T23:04:01.306Z,357.63
2022-11-15T23:06:30.929Z,245.80
2022-11-15T23:08:59.091Z,240.57
2022-11-15T23:11:44.444Z,184.00
2022-11-15T23:14:12.761Z,426.97
2022-11-15T23:16:40.854Z,234.27
2022-11-15T23:19:11.784Z,234.20
2022-11-15T23:22:00.006Z,389.10
2022-11-15T23:24:28.617Z,203.87
2022-11-15T23:26:58.795Z,52.63
2022-11-15T23:29:28.799Z,314.47
2022-11-15T23:32:15.266Z,364.77
2022-11-15T23:34:45.540Z,266.83
2022-11-15T23:37:16.490Z,135.63
2022-11-15T23:39:44.560Z,61.87
2022-11-15T23:42:19.717Z,135.40
2022-11-15T23:44:50.084Z,303.67
2022-11-15T23:47:18.203Z,245.13
2022-11-15T23:49:46.281Z,281.90
2022-11-15T23:52:16.528Z,165.00
2022-11-15T23:54:44.708Z,225.73
2022-11-15T23:57:12.826Z,344.80
2022-11-15T23:59:43.429Z,319.37
